sensor_id;sensor_type;location;lat;lon;timestamp;P1;durP1;ratioP1;P2;durP2;ratioP2
6955;SDS011;50345;51.136;16.886;2022-11-15T00:00:33;58.88;;;41.47;;
6955;SDS011;50345;51.136;16.886;2022-11-15T00:02:59;64.03;;;42.05;;
6955;SDS011;50345;51.136;16.886;2022-11-15T00:05:25;56.20;;;39.92;;
6955;SDS011;50345;51.136;16.886;2022-11-15T00:07:51;59.63;;;39.17;;
6955;SDS011;50345;51.136;16.886;2022-11-15T00:10:17;63.05;;;40.55;;
6955;SDS011;50345;51.136;16.886;2022-11-15T00:12:43;55.35;;;38.10;;
6955;SDS011;50345;51.136;16.886;2022-11-15T00:15:09;57.58;;;39.53;;
6955;SDS011;50345;51.136;16.886;2022-11-15T00:17:35;60.67;;;40.13;;
6955;SDS011;50345;51.136;16.886;2022-11-15T00:20:02;53.58;;;41.53;;
6955;SDS011;50345;51.136;16.886;2022-11-15T00:22:32;58.03;;;39.63;;
6955;SDS011;50345;51.136;16.886;2022-11-15T00:24:58;55.55;;;37.50;;
6955;SDS011;50345;51.136;16.886;2022-11-15T00:27:24;54.58;;;40.17;;
6955;SDS011;50345;51.136;16.886;2022-11-15T00:29:50;57.15;;;41.13;;
6955;SDS011;50345;51.136;16.886;2022-11-15T00:32:16;61.73;;;41.07;;
6955;SDS011;50345;51.136;16.886;2022-11-15T00:34:42;53.83;;;37.77;;
6955;SDS011;50345;51.136;16.886;2022-11-15T00:37:08;56.73;;;38.20;;
6955;SDS011;50345;51.136;16.886;2022-11-15T00:39:34;56.90;;;41.90;;
6955;SDS011;50345;51.136;16.886;2022-11-15T00:42:00;55.47;;;41.23;;
6955;SDS011;50345;51.136;16.886;2022-11-15T00:44:26;58.08;;;39.55;;
6955;SDS011;50345;51.136;16.886;2022-11-15T00:46:52;58.60;;;40.70;;
6955;SDS011;50345;51.136;16.886;2022-11-15T00:49:18;58.72;;;39.17;;
6955;SDS011;50345;51.136;16.886;2022-11-15T00:51:44;48.47;;;37.73;;
6955;SDS011;50345;51.136;16.886;2022-11-15T00:54:10;58.25;;;39.53;;
6955;SDS011;50345;51.136;16.886;2022-11-15T00:56:36;54.97;;;37.23;;
6955;SDS011;50345;51.136;16.886;2022-11-15T00:59:02;57.38;;;38.88;;
6955;SDS011;50345;51.136;16.886;2022-11-15T01:01:28;63.83;;;42.85;;
6955;SDS011;50345;51.136;16.886;2022-11-15T01:03:53;58.22;;;40.35;;
6955;SDS011;50345;51.136;16.886;2022-11-15T01:06:19;57.70;;;41.15;;
6955;SDS011;50345;51.136;16.886;2022-11-15T01:08:45;64.15;;;43.33;;
6955;SDS011;50345;51.136;16.886;2022-11-15T01:11:11;63.83;;;42.50;;
6955;SDS011;50345;51.136;16.886;2022-11-15T01:13:38;69.18;;;43.10;;
6955;SDS011;50345;51.136;16.886;2022-11-15T01:16:12;60.03;;;42.15;;
6955;SDS011;50345;51.136;16.886;2022-11-15T01:18:39;54.50;;;40.78;;
6955;SDS011;50345;51.136;16.886;2022-11-15T01:21:09;63.22;;;44.05;;
6955;SDS011;50345;51.136;16.886;2022-11-15T01:23:35;60.75;;;45.15;;
6955;SDS011;50345;51.136;16.886;2022-11-15T01:26:02;65.78;;;45.22;;
6955;SDS011;50345;51.136;16.886;2022-11-15T01:28:32;58.75;;;41.45;;
6955;SDS011;50345;51.136;16.886;2022-11-15T01:31:02;62.63;;;41.67;;
6955;SDS011;50345;51.136;16.886;2022-11-15T01:33:28;61.47;;;40.45;;
6955;SDS011;50345;51.136;16.886;2022-11-15T01:35:54;56.33;;;40.35;;
6955;SDS011;50345;51.136;16.886;2022-11-15T01:38:21;59.55;;;41.13;;
6955;SDS011;50345;51.136;16.886;2022-11-15T01:40:47;55.70;;;39.30;;
6955;SDS011;50345;51.136;16.886;2022-11-15T01:43:19;59.70;;;41.45;;
6955;SDS011;50345;51.136;16.886;2022-11-15T01:45:46;71.47;;;45.00;;
6955;SDS011;50345;51.136;16.886;2022-11-15T01:48:15;60.15;;;41.30;;
6955;SDS011;50345;51.136;16.886;2022-11-15T01:50:41;55.78;;;39.95;;
6955;SDS011;50345;51.136;16.886;2022-11-15T01:53:07;57.70;;;39.33;;
6955;SDS011;50345;51.136;16.886;2022-11-15T01:55:35;62.03;;;42.88;;
6955;SDS011;50345;51.136;16.886;2022-11-15T01:58:02;58.53;;;41.73;;
6955;SDS011;50345;51.136;16.886;2022-11-15T02:00:30;57.63;;;40.60;;
6955;SDS011;50345;51.136;16.886;2022-11-15T02:02:56;57.65;;;40.63;;
6955;SDS011;50345;51.136;16.886;2022-11-15T02:05:22;60.13;;;40.20;;
6955;SDS011;50345;51.136;16.886;2022-11-15T02:07:48;60.27;;;40.83;;
6955;SDS011;50345;51.136;16.886;2022-11-15T02:10:18;62.78;;;39.00;;
6955;SDS011;50345;51.136;16.886;2022-11-15T02:12:45;58.35;;;38.83;;
6955;SDS011;50345;51.136;16.886;2022-11-15T02:15:11;56.22;;;41.30;;
6955;SDS011;50345;51.136;16.886;2022-11-15T02:17:45;61.40;;;38.85;;
6955;SDS011;50345;51.136;16.886;2022-11-15T02:33:44;55.53;;;36.50;;
6955;SDS011;50345;51.136;16.886;2022-11-15T02:36:34;60.60;;;40.92;;
6955;SDS011;50345;51.136;16.886;2022-11-15T02:41:48;59.65;;;39.58;;
6955;SDS011;50345;51.136;16.886;2022-11-15T02:44:59;49.92;;;38.45;;
6955;SDS011;50345;51.136;16.886;2022-11-15T02:47:09;62.58;;;41.38;;
6955;SDS011;50345;51.136;16.886;2022-11-15T02:50:01;56.80;;;40.92;;
6955;SDS011;50345;51.136;16.886;2022-11-15T02:52:26;58.45;;;39.08;;
6955;SDS011;50345;51.136;16.886;2022-11-15T02:54:56;56.75;;;35.60;;
6955;SDS011;50345;51.136;16.886;2022-11-15T03:04:57;56.72;;;40.85;;
6955;SDS011;50345;51.136;16.886;2022-11-15T03:10:01;60.15;;;39.75;;
6955;SDS011;50345;51.136;16.886;2022-11-15T03:15:04;61.03;;;43.28;;
6955;SDS011;50345;51.136;16.886;2022-11-15T03:17:51;59.90;;;40.20;;
6955;SDS011;50345;51.136;16.886;2022-11-15T03:20:19;51.15;;;36.88;;
6955;SDS011;50345;51.136;16.886;2022-11-15T03:22:45;47.10;;;36.00;;
6955;SDS011;50345;51.136;16.886;2022-11-15T03:25:17;58.65;;;38.55;;
6955;SDS011;50345;51.136;16.886;2022-11-15T03:27:46;56.50;;;42.78;;
6955;SDS011;50345;51.136;16.886;2022-11-15T03:30:12;58.30;;;38.40;;
6955;SDS011;50345;51.136;16.886;2022-11-15T03:32:39;57.00;;;39.53;;
6955;SDS011;50345;51.136;16.886;2022-11-15T03:35:10;54.45;;;40.08;;
6955;SDS011;50345;51.136;16.886;2022-11-15T03:37:41;60.00;;;40.33;;
6955;SDS011;50345;51.136;16.886;2022-11-15T03:40:09;58.78;;;40.22;;
6955;SDS011;50345;51.136;16.886;2022-11-15T03:42:38;63.25;;;41.63;;
6955;SDS011;50345;51.136;16.886;2022-11-15T03:45:10;57.83;;;39.17;;
6955;SDS011;50345;51.136;16.886;2022-11-15T03:47:39;56.58;;;40.38;;
6955;SDS011;50345;51.136;16.886;2022-11-15T03:50:08;56.05;;;39.08;;
6955;SDS011;50345;51.136;16.886;2022-11-15T03:52:35;68.55;;;41.80;;
6955;SDS011;50345;51.136;16.886;2022-11-15T03:55:03;55.15;;;42.53;;
6955;SDS011;50345;51.136;16.886;2022-11-15T03:57:29;61.55;;;40.72;;
6955;SDS011;50345;51.136;16.886;2022-11-15T03:59:55;59.40;;;42.25;;
6955;SDS011;50345;51.136;16.886;2022-11-15T04:02:21;65.67;;;42.60;;
6955;SDS011;50345;51.136;16.886;2022-11-15T04:04:47;61.47;;;43.67;;
6955;SDS011;50345;51.136;16.886;2022-11-15T04:07:13;58.60;;;39.93;;
6955;SDS011;50345;51.136;16.886;2022-11-15T04:09:39;57.85;;;41.65;;
6955;SDS011;50345;51.136;16.886;2022-11-15T04:12:23;64.75;;;41.15;;
6955;SDS011;50345;51.136;16.886;2022-11-15T04:15:06;52.38;;;37.88;;
6955;SDS011;50345;51.136;16.886;2022-11-15T04:17:33;61.55;;;38.95;;
6955;SDS011;50345;51.136;16.886;2022-11-15T04:20:00;56.17;;;38.67;;
6955;SDS011;50345;51.136;16.886;2022-11-15T04:22:44;56.80;;;36.05;;
6955;SDS011;50345;51.136;16.886;2022-11-15T04:25:29;53.83;;;36.13;;
6955;SDS011;50345;51.136;16.886;2022-11-15T04:27:55;59.70;;;39.77;;
6955;SDS011;50345;51.136;16.886;2022-11-15T04:30:21;55.72;;;37.08;;
6955;SDS011;50345;51.136;16.886;2022-11-15T04:32:47;54.60;;;35.85;;
6955;SDS011;50345;51.136;16.886;2022-11-15T04:35:13;62.10;;;38.30;;
6955;SDS011;50345;51.136;16.886;2022-11-15T04:37:39;54.67;;;38.95;;
6955;SDS011;50345;51.136;16.886;2022-11-15T04:40:05;59.00;;;39.17;;
6955;SDS011;50345;51.136;16.886;2022-11-15T04:42:31;59.92;;;40.10;;
6955;SDS011;50345;51.136;16.886;2022-11-15T04:44:57;65.20;;;39.83;;
6955;SDS011;50345;51.136;16.886;2022-11-15T04:47:23;58.60;;;41.07;;
6955;SDS011;50345;51.136;16.886;2022-11-15T04:49:49;58.00;;;39.23;;
6955;SDS011;50345;51.136;16.886;2022-11-15T04:52:15;52.33;;;37.97;;
6955;SDS011;50345;51.136;16.886;2022-11-15T04:54:41;59.60;;;38.50;;
6955;SDS011;50345;51.136;16.886;2022-11-15T04:57:07;57.20;;;39.00;;
6955;SDS011;50345;51.136;16.886;2022-11-15T04:59:33;53.10;;;39.55;;
6955;SDS011;50345;51.136;16.886;2022-11-15T05:01:59;54.17;;;39.50;;
6955;SDS011;50345;51.136;16.886;2022-11-15T05:04:25;60.33;;;39.00;;
6955;SDS011;50345;51.136;16.886;2022-11-15T05:06:51;57.10;;;39.75;;
6955;SDS011;50345;51.136;16.886;2022-11-15T05:09:18;56.95;;;39.08;;
6955;SDS011;50345;51.136;16.886;2022-11-15T05:11:44;55.25;;;37.10;;
6955;SDS011;50345;51.136;16.886;2022-11-15T05:14:10;58.80;;;39.63;;
6955;SDS011;50345;51.136;16.886;2022-11-15T05:16:36;64.30;;;39.38;;
6955;SDS011;50345;51.136;16.886;2022-11-15T05:19:02;59.17;;;41.17;;
6955;SDS011;50345;51.136;16.886;2022-11-15T05:21:28;55.28;;;36.42;;
6955;SDS011;50345;51.136;16.886;2022-11-15T05:23:54;59.97;;;37.22;;
6955;SDS011;50345;51.136;16.886;2022-11-15T05:26:20;57.45;;;39.70;;
6955;SDS011;50345;51.136;16.886;2022-11-15T05:28:46;55.87;;;38.00;;
6955;SDS011;50345;51.136;16.886;2022-11-15T05:31:13;60.70;;;38.70;;
6955;SDS011;50345;51.136;16.886;2022-11-15T05:33:39;61.15;;;39.83;;
6955;SDS011;50345;51.136;16.886;2022-11-15T05:38:32;61.25;;;40.15;;
6955;SDS011;50345;51.136;16.886;2022-11-15T05:40:59;59.63;;;41.38;;
6955;SDS011;50345;51.136;16.886;2022-11-15T05:43:25;60.97;;;42.38;;
6955;SDS011;50345;51.136;16.886;2022-11-15T05:45:51;58.85;;;40.00;;
6955;SDS011;50345;51.136;16.886;2022-11-15T05:48:17;59.63;;;39.40;;
6955;SDS011;50345;51.136;16.886;2022-11-15T05:50:44;59.90;;;40.42;;
6955;SDS011;50345;51.136;16.886;2022-11-15T05:53:11;58.80;;;38.80;;
6955;SDS011;50345;51.136;16.886;2022-11-15T05:55:38;56.05;;;39.35;;
6955;SDS011;50345;51.136;16.886;2022-11-15T05:58:04;70.05;;;41.40;;
6955;SDS011;50345;51.136;16.886;2022-11-15T06:00:30;65.43;;;43.80;;
6955;SDS011;50345;51.136;16.886;2022-11-15T06:02:56;74.90;;;43.92;;
6955;SDS011;50345;51.136;16.886;2022-11-15T06:05:22;72.45;;;49.67;;
6955;SDS011;50345;51.136;16.886;2022-11-15T06:07:48;72.63;;;53.15;;
6955;SDS011;50345;51.136;16.886;2022-11-15T06:10:14;80.73;;;51.73;;
6955;SDS011;50345;51.136;16.886;2022-11-15T06:12:40;68.47;;;49.30;;
6955;SDS011;50345;51.136;16.886;2022-11-15T06:15:06;74.47;;;50.00;;
6955;SDS011;50345;51.136;16.886;2022-11-15T06:17:32;70.10;;;44.85;;
6955;SDS011;50345;51.136;16.886;2022-11-15T06:19:58;65.57;;;41.53;;
6955;SDS011;50345;51.136;16.886;2022-11-15T06:22:24;68.57;;;44.90;;
6955;SDS011;50345;51.136;16.886;2022-11-15T06:24:50;66.27;;;46.70;;
6955;SDS011;50345;51.136;16.886;2022-11-15T06:27:16;71.22;;;45.20;;
6955;SDS011;50345;51.136;16.886;2022-11-15T06:29:42;62.63;;;40.55;;
6955;SDS011;50345;51.136;16.886;2022-11-15T06:32:08;65.77;;;42.27;;
6955;SDS011;50345;51.136;16.886;2022-11-15T06:34:34;63.83;;;42.60;;
6955;SDS011;50345;51.136;16.886;2022-11-15T06:37:00;59.05;;;40.03;;
6955;SDS011;50345;51.136;16.886;2022-11-15T06:39:26;59.67;;;38.93;;
6955;SDS011;50345;51.136;16.886;2022-11-15T06:41:52;61.65;;;36.75;;
6955;SDS011;50345;51.136;16.886;2022-11-15T06:44:18;53.72;;;38.20;;
6955;SDS011;50345;51.136;16.886;2022-11-15T06:46:44;60.97;;;38.47;;
6955;SDS011;50345;51.136;16.886;2022-11-15T06:49:10;57.23;;;42.47;;
6955;SDS011;50345;51.136;16.886;2022-11-15T06:51:36;65.20;;;43.88;;
6955;SDS011;50345;51.136;16.886;2022-11-15T06:54:02;65.65;;;41.13;;
6955;SDS011;50345;51.136;16.886;2022-11-15T06:56:28;57.80;;;41.22;;
6955;SDS011;50345;51.136;16.886;2022-11-15T06:58:55;60.20;;;39.20;;
6955;SDS011;50345;51.136;16.886;2022-11-15T07:01:21;70.55;;;42.08;;
6955;SDS011;50345;51.136;16.886;2022-11-15T07:03:47;60.37;;;44.07;;
6955;SDS011;50345;51.136;16.886;2022-11-15T07:06:13;62.63;;;44.80;;
6955;SDS011;50345;51.136;16.886;2022-11-15T07:08:39;67.40;;;43.78;;
6955;SDS011;50345;51.136;16.886;2022-11-15T07:11:06;58.88;;;40.15;;
6955;SDS011;50345;51.136;16.886;2022-11-15T07:13:33;69.88;;;44.55;;
6955;SDS011;50345;51.136;16.886;2022-11-15T07:16:03;56.88;;;42.38;;
6955;SDS011;50345;51.136;16.886;2022-11-15T07:18:29;61.97;;;44.03;;
6955;SDS011;50345;51.136;16.886;2022-11-15T07:20:59;67.13;;;44.78;;
6955;SDS011;50345;51.136;16.886;2022-11-15T07:23:25;69.32;;;47.92;;
6955;SDS011;50345;51.136;16.886;2022-11-15T07:25:51;64.20;;;42.40;;
6955;SDS011;50345;51.136;16.886;2022-11-15T07:28:17;67.00;;;43.70;;
6955;SDS011;50345;51.136;16.886;2022-11-15T07:30:43;67.07;;;44.28;;
6955;SDS011;50345;51.136;16.886;2022-11-15T07:33:09;67.53;;;42.80;;
6955;SDS011;50345;51.136;16.886;2022-11-15T07:35:35;58.58;;;43.55;;
6955;SDS011;50345;51.136;16.886;2022-11-15T07:38:01;66.05;;;42.28;;
6955;SDS011;50345;51.136;16.886;2022-11-15T07:40:28;63.30;;;43.50;;
6955;SDS011;50345;51.136;16.886;2022-11-15T07:42:58;63.80;;;42.38;;
6955;SDS011;50345;51.136;16.886;2022-11-15T07:45:25;77.88;;;47.75;;
6955;SDS011;50345;51.136;16.886;2022-11-15T07:47:51;82.65;;;50.55;;
6955;SDS011;50345;51.136;16.886;2022-11-15T07:50:18;82.90;;;53.22;;
6955;SDS011;50345;51.136;16.886;2022-11-15T07:52:44;80.90;;;48.78;;
6955;SDS011;50345;51.136;16.886;2022-11-15T07:55:10;74.13;;;47.85;;
6955;SDS011;50345;51.136;16.886;2022-11-15T07:57:37;71.00;;;45.85;;
6955;SDS011;50345;51.136;16.886;2022-11-15T08:00:03;65.78;;;43.80;;
6955;SDS011;50345;51.136;16.886;2022-11-15T08:02:30;75.30;;;44.22;;
6955;SDS011;50345;51.136;16.886;2022-11-15T08:04:56;64.53;;;41.13;;
6955;SDS011;50345;51.136;16.886;2022-11-15T08:07:22;57.63;;;42.65;;
6955;SDS011;50345;51.136;16.886;2022-11-15T08:09:48;58.13;;;41.47;;
6955;SDS011;50345;51.136;16.886;2022-11-15T08:12:14;57.15;;;39.25;;
6955;SDS011;50345;51.136;16.886;2022-11-15T08:14:40;58.40;;;39.83;;
6955;SDS011;50345;51.136;16.886;2022-11-15T08:17:06;57.92;;;42.20;;
6955;SDS011;50345;51.136;16.886;2022-11-15T08:19:32;59.38;;;38.67;;
6955;SDS011;50345;51.136;16.886;2022-11-15T08:21:58;55.25;;;39.92;;
6955;SDS011;50345;51.136;16.886;2022-11-15T08:24:24;53.33;;;38.45;;
6955;SDS011;50345;51.136;16.886;2022-11-15T08:26:50;63.25;;;37.13;;
6955;SDS011;50345;51.136;16.886;2022-11-15T08:29:16;63.83;;;41.33;;
6955;SDS011;50345;51.136;16.886;2022-11-15T08:31:42;57.05;;;40.53;;
6955;SDS011;50345;51.136;16.886;2022-11-15T08:34:08;73.13;;;43.25;;
6955;SDS011;50345;51.136;16.886;2022-11-15T08:36:35;63.65;;;41.28;;
6955;SDS011;50345;51.136;16.886;2022-11-15T08:39:10;60.17;;;43.92;;
6955;SDS011;50345;51.136;16.886;2022-11-15T08:41:37;64.82;;;44.45;;
6955;SDS011;50345;51.136;16.886;2022-11-15T08:44:04;60.00;;;43.08;;
6955;SDS011;50345;51.136;16.886;2022-11-15T08:46:30;73.25;;;43.40;;
6955;SDS011;50345;51.136;16.886;2022-11-15T08:48:56;66.85;;;46.03;;
6955;SDS011;50345;51.136;16.886;2022-11-15T08:51:22;52.28;;;43.55;;
6955;SDS011;50345;51.136;16.886;2022-11-15T08:53:48;64.75;;;42.90;;
6955;SDS011;50345;51.136;16.886;2022-11-15T08:56:14;71.88;;;43.97;;
6955;SDS011;50345;51.136;16.886;2022-11-15T08:58:40;64.50;;;45.70;;
6955;SDS011;50345;51.136;16.886;2022-11-15T09:01:13;61.47;;;43.25;;
6955;SDS011;50345;51.136;16.886;2022-11-15T09:03:40;53.90;;;42.40;;
6955;SDS011;50345;51.136;16.886;2022-11-15T09:06:06;58.90;;;42.70;;
6955;SDS011;50345;51.136;16.886;2022-11-15T09:08:32;55.42;;;39.53;;
6955;SDS011;50345;51.136;16.886;2022-11-15T09:11:02;64.18;;;40.95;;
6955;SDS011;50345;51.136;16.886;2022-11-15T09:13:28;53.85;;;40.25;;
6955;SDS011;50345;51.136;16.886;2022-11-15T09:15:57;49.13;;;38.05;;
6955;SDS011;50345;51.136;16.886;2022-11-15T09:18:24;52.92;;;39.03;;
6955;SDS011;50345;51.136;16.886;2022-11-15T09:20:50;56.58;;;38.95;;
6955;SDS011;50345;51.136;16.886;2022-11-15T09:23:16;45.45;;;37.75;;
6955;SDS011;50345;51.136;16.886;2022-11-15T09:25:42;45.40;;;35.97;;
6955;SDS011;50345;51.136;16.886;2022-11-15T09:28:08;48.92;;;37.05;;
6955;SDS011;50345;51.136;16.886;2022-11-15T09:30:34;51.55;;;34.72;;
6955;SDS011;50345;51.136;16.886;2022-11-15T09:33:06;44.67;;;36.27;;
6955;SDS011;50345;51.136;16.886;2022-11-15T09:35:32;47.88;;;35.13;;
6955;SDS011;50345;51.136;16.886;2022-11-15T09:37:59;37.92;;;30.90;;
6955;SDS011;50345;51.136;16.886;2022-11-15T09:40:25;41.63;;;35.15;;
6955;SDS011;50345;51.136;16.886;2022-11-15T09:45:33;31.05;;;27.73;;
6955;SDS011;50345;51.136;16.886;2022-11-15T09:50:40;32.13;;;26.58;;
6955;SDS011;50345;51.136;16.886;2022-11-15T09:53:42;31.80;;;25.93;;
6955;SDS011;50345;51.136;16.886;2022-11-15T09:56:01;32.80;;;27.88;;
6955;SDS011;50345;51.136;16.886;2022-11-15T10:04:10;36.40;;;28.57;;
6955;SDS011;50345;51.136;16.886;2022-11-15T10:06:38;32.23;;;28.57;;
6955;SDS011;50345;51.136;16.886;2022-11-15T10:09:06;34.60;;;27.53;;
6955;SDS011;50345;51.136;16.886;2022-11-15T10:11:34;32.70;;;29.20;;
6955;SDS011;50345;51.136;16.886;2022-11-15T10:14:02;29.83;;;26.63;;
6955;SDS011;50345;51.136;16.886;2022-11-15T10:17:07;28.40;;;25.37;;
6955;SDS011;50345;51.136;16.886;2022-11-15T10:24:35;30.17;;;26.50;;
6955;SDS011;50345;51.136;16.886;2022-11-15T10:27:07;28.20;;;24.47;;
6955;SDS011;50345;51.136;16.886;2022-11-15T10:29:33;31.33;;;26.53;;
6955;SDS011;50345;51.136;16.886;2022-11-15T10:31:59;28.60;;;25.63;;
6955;SDS011;50345;51.136;16.886;2022-11-15T10:34:25;27.53;;;24.73;;
6955;SDS011;50345;51.136;16.886;2022-11-15T10:36:58;29.77;;;24.93;;
6955;SDS011;50345;51.136;16.886;2022-11-15T10:39:26;28.33;;;25.50;;
6955;SDS011;50345;51.136;16.886;2022-11-15T10:41:53;28.17;;;25.27;;
6955;SDS011;50345;51.136;16.886;2022-11-15T10:49:21;26.13;;;23.37;;
6955;SDS011;50345;51.136;16.886;2022-11-15T10:54:28;24.73;;;22.10;;
6955;SDS011;50345;51.136;16.886;2022-11-15T10:56:56;24.40;;;21.60;;
6955;SDS011;50345;51.136;16.886;2022-11-15T10:59:28;23.97;;;21.40;;
6955;SDS011;50345;51.136;16.886;2022-11-15T11:01:54;24.80;;;21.37;;
6955;SDS011;50345;51.136;16.886;2022-11-15T11:04:21;25.30;;;21.80;;
6955;SDS011;50345;51.136;16.886;2022-11-15T11:06:48;27.00;;;20.50;;
6955;SDS011;50345;51.136;16.886;2022-11-15T11:09:34;22.00;;;19.67;;
6955;SDS011;50345;51.136;16.886;2022-11-15T11:12:00;21.00;;;18.90;;
6955;SDS011;50345;51.136;16.886;2022-11-15T11:21:55;18.23;;;16.43;;
6955;SDS011;50345;51.136;16.886;2022-11-15T11:24:29;19.10;;;17.30;;
6955;SDS011;50345;51.136;16.886;2022-11-15T11:27:08;19.67;;;17.40;;
6955;SDS011;50345;51.136;16.886;2022-11-15T11:32:28;20.87;;;18.67;;
6955;SDS011;50345;51.136;16.886;2022-11-15T11:35:08;22.93;;;20.73;;
6955;SDS011;50345;51.136;16.886;2022-11-15T11:37:39;23.60;;;20.97;;
6955;SDS011;50345;51.136;16.886;2022-11-15T11:40:20;32.83;;;24.17;;
6955;SDS011;50345;51.136;16.886;2022-11-15T11:42:53;28.93;;;25.80;;
6955;SDS011;50345;51.136;16.886;2022-11-15T11:50:28;26.07;;;23.23;;
6955;SDS011;50345;51.136;16.886;2022-11-15T11:55:22;28.77;;;24.67;;
6955;SDS011;50345;51.136;16.886;2022-11-15T12:00:22;21.47;;;19.17;;
6955;SDS011;50345;51.136;16.886;2022-11-15T12:11:03;23.67;;;20.47;;
6955;SDS011;50345;51.136;16.886;2022-11-15T12:13:30;20.83;;;18.70;;
6955;SDS011;50345;51.136;16.886;2022-11-15T12:18:27;22.50;;;19.13;;
6955;SDS011;50345;51.136;16.886;2022-11-15T12:20:55;17.17;;;15.50;;
6955;SDS011;50345;51.136;16.886;2022-11-15T12:23:24;19.87;;;16.67;;
6955;SDS011;50345;51.136;16.886;2022-11-15T12:28:24;19.17;;;15.13;;
6955;SDS011;50345;51.136;16.886;2022-11-15T12:30:54;14.23;;;12.97;;
6955;SDS011;50345;51.136;16.886;2022-11-15T12:36:03;13.63;;;12.30;;
6955;SDS011;50345;51.136;16.886;2022-11-15T12:41:15;12.67;;;11.30;;
6955;SDS011;50345;51.136;16.886;2022-11-15T12:43:45;13.93;;;12.73;;
6955;SDS011;50345;51.136;16.886;2022-11-15T12:46:13;11.83;;;10.73;;
6955;SDS011;50345;51.136;16.886;2022-11-15T12:48:46;11.53;;;10.50;;
6955;SDS011;50345;51.136;16.886;2022-11-15T12:51:12;13.93;;;11.93;;
6955;SDS011;50345;51.136;16.886;2022-11-15T12:53:38;13.13;;;11.87;;
6955;SDS011;50345;51.136;16.886;2022-11-15T13:01:10;12.10;;;10.90;;
6955;SDS011;50345;51.136;16.886;2022-11-15T13:11:55;13.10;;;11.90;;
6955;SDS011;50345;51.136;16.886;2022-11-15T13:17:12;12.57;;;11.27;;
6955;SDS011;50345;51.136;16.886;2022-11-15T13:19:42;12.17;;;10.90;;
6955;SDS011;50345;51.136;16.886;2022-11-15T13:22:09;14.40;;;13.07;;
6955;SDS011;50345;51.136;16.886;2022-11-15T13:24:54;12.50;;;11.27;;
6955;SDS011;50345;51.136;16.886;2022-11-15T13:27:21;19.57;;;14.37;;
6955;SDS011;50345;51.136;16.886;2022-11-15T13:29:47;17.10;;;14.07;;
6955;SDS011;50345;51.136;16.886;2022-11-15T13:32:13;15.10;;;13.57;;
6955;SDS011;50345;51.136;16.886;2022-11-15T13:34:44;14.47;;;12.90;;
6955;SDS011;50345;51.136;16.886;2022-11-15T13:39:45;15.23;;;13.67;;
6955;SDS011;50345;51.136;16.886;2022-11-15T13:42:15;14.23;;;12.73;;
6955;SDS011;50345;51.136;16.886;2022-11-15T13:44:54;14.50;;;12.13;;
6955;SDS011;50345;51.136;16.886;2022-11-15T13:47:20;15.90;;;14.25;;
6955;SDS011;50345;51.136;16.886;2022-11-15T13:49:46;16.85;;;13.35;;
6955;SDS011;50345;51.136;16.886;2022-11-15T13:52:15;15.93;;;13.70;;
6955;SDS011;50345;51.136;16.886;2022-11-15T13:55:04;15.77;;;14.25;;
6955;SDS011;50345;51.136;16.886;2022-11-15T13:57:35;14.80;;;13.30;;
6955;SDS011;50345;51.136;16.886;2022-11-15T14:00:06;16.00;;;13.52;;
6955;SDS011;50345;51.136;16.886;2022-11-15T14:02:33;15.18;;;13.38;;
6955;SDS011;50345;51.136;16.886;2022-11-15T14:05:02;17.50;;;14.40;;
6955;SDS011;50345;51.136;16.886;2022-11-15T14:07:31;17.05;;;13.85;;
6955;SDS011;50345;51.136;16.886;2022-11-15T14:10:16;17.80;;;15.05;;
6955;SDS011;50345;51.136;16.886;2022-11-15T14:12:50;19.08;;;14.05;;
6955;SDS011;50345;51.136;16.886;2022-11-15T14:17:54;15.75;;;14.18;;
6955;SDS011;50345;51.136;16.886;2022-11-15T14:22:56;16.85;;;15.15;;
6955;SDS011;50345;51.136;16.886;2022-11-15T14:25:23;17.75;;;14.30;;
6955;SDS011;50345;51.136;16.886;2022-11-15T14:30:35;21.10;;;18.10;;
6955;SDS011;50345;51.136;16.886;2022-11-15T14:33:01;19.33;;;16.70;;
6955;SDS011;50345;51.136;16.886;2022-11-15T14:35:27;21.42;;;16.55;;
6955;SDS011;50345;51.136;16.886;2022-11-15T14:37:54;18.30;;;14.80;;
6955;SDS011;50345;51.136;16.886;2022-11-15T14:40:21;18.95;;;14.80;;
6955;SDS011;50345;51.136;16.886;2022-11-15T14:42:48;31.67;;;23.95;;
6955;SDS011;50345;51.136;16.886;2022-11-15T14:45:16;40.92;;;26.55;;
6955;SDS011;50345;51.136;16.886;2022-11-15T14:47:42;33.30;;;20.00;;
6955;SDS011;50345;51.136;16.886;2022-11-15T14:50:12;20.02;;;17.45;;
6955;SDS011;50345;51.136;16.886;2022-11-15T14:52:39;24.33;;;16.30;;
6955;SDS011;50345;51.136;16.886;2022-11-15T14:55:11;26.17;;;16.30;;
6955;SDS011;50345;51.136;16.886;2022-11-15T14:57:39;23.08;;;15.75;;
6955;SDS011;50345;51.136;16.886;2022-11-15T15:00:05;23.90;;;18.08;;
6955;SDS011;50345;51.136;16.886;2022-11-15T15:02:33;22.88;;;17.52;;
6955;SDS011;50345;51.136;16.886;2022-11-15T15:04:59;29.65;;;18.58;;
6955;SDS011;50345;51.136;16.886;2022-11-15T15:07:28;23.50;;;17.30;;
6955;SDS011;50345;51.136;16.886;2022-11-15T15:09:54;31.80;;;20.23;;
6955;SDS011;50345;51.136;16.886;2022-11-15T15:12:20;22.52;;;19.38;;
6955;SDS011;50345;51.136;16.886;2022-11-15T15:14:48;23.25;;;19.95;;
6955;SDS011;50345;51.136;16.886;2022-11-15T15:17:14;26.77;;;19.90;;
6955;SDS011;50345;51.136;16.886;2022-11-15T15:19:41;26.83;;;20.15;;
6955;SDS011;50345;51.136;16.886;2022-11-15T15:22:13;21.73;;;19.40;;
6955;SDS011;50345;51.136;16.886;2022-11-15T15:24:40;26.83;;;21.63;;
6955;SDS011;50345;51.136;16.886;2022-11-15T15:27:06;31.83;;;23.05;;
6955;SDS011;50345;51.136;16.886;2022-11-15T15:29:32;33.60;;;27.38;;
6955;SDS011;50345;51.136;16.886;2022-11-15T15:31:58;40.33;;;33.42;;
6955;SDS011;50345;51.136;16.886;2022-11-15T15:34:24;40.08;;;34.67;;
6955;SDS011;50345;51.136;16.886;2022-11-15T15:37:05;42.97;;;34.63;;
6955;SDS011;50345;51.136;16.886;2022-11-15T15:39:31;41.20;;;33.38;;
6955;SDS011;50345;51.136;16.886;2022-11-15T15:41:57;42.63;;;36.28;;
6955;SDS011;50345;51.136;16.886;2022-11-15T15:44:23;46.92;;;36.63;;
6955;SDS011;50345;51.136;16.886;2022-11-15T15:46:49;45.45;;;39.10;;
6955;SDS011;50345;51.136;16.886;2022-11-15T15:49:16;49.10;;;39.45;;
6955;SDS011;50345;51.136;16.886;2022-11-15T15:51:42;42.45;;;34.67;;
6955;SDS011;50345;51.136;16.886;2022-11-15T15:54:08;48.47;;;35.45;;
6955;SDS011;50345;51.136;16.886;2022-11-15T15:56:34;50.00;;;37.03;;
6955;SDS011;50345;51.136;16.886;2022-11-15T15:59:00;60.10;;;42.05;;
6955;SDS011;50345;51.136;16.886;2022-11-15T16:01:26;64.88;;;45.67;;
6955;SDS011;50345;51.136;16.886;2022-11-15T16:03:52;68.10;;;49.90;;
6955;SDS011;50345;51.136;16.886;2022-11-15T16:06:31;58.40;;;41.72;;
6955;SDS011;50345;51.136;16.886;2022-11-15T16:08:58;49.55;;;39.17;;
6955;SDS011;50345;51.136;16.886;2022-11-15T16:11:24;47.33;;;37.20;;
6955;SDS011;50345;51.136;16.886;2022-11-15T16:13:50;67.30;;;49.05;;
6955;SDS011;50345;51.136;16.886;2022-11-15T16:16:16;67.53;;;46.72;;
6955;SDS011;50345;51.136;16.886;2022-11-15T16:18:43;56.13;;;40.65;;
6955;SDS011;50345;51.136;16.886;2022-11-15T16:21:09;53.33;;;42.45;;
6955;SDS011;50345;51.136;16.886;2022-11-15T16:23:35;52.53;;;41.13;;
6955;SDS011;50345;51.136;16.886;2022-11-15T16:26:01;81.32;;;55.65;;